createdAt,value
2023-03-02T00:04:12.370Z,27.23
2023-03-02T00:09:12.599Z,25.48
2023-03-02T00:14:11.353Z,27.13
2023-03-02T00:19:10.110Z,22.92
2023-03-02T00:24:09.327Z,23.25
2023-03-02T00:29:09.884Z,20.90
2023-03-02T00:34:08.983Z,26.60
2023-03-02T00:39:09.415Z,24.45
2023-03-02T00:44:09.614Z,25.23
2023-03-02T00:49:08.567Z,24.25
2023-03-02T00:54:07.541Z,22.33
2023-03-02T00:59:07.301Z,21.13
2023-03-02T01:04:08.426Z,25.52
2023-03-02T01:09:07.375Z,23.63
2023-03-02T01:14:06.350Z,27.23
2023-03-02T01:19:05.304Z,22.35
2023-03-02T01:24:06.662Z,24.13
2023-03-02T01:29:06.106Z,27.30
2023-03-02T01:34:05.025Z,27.00
2023-03-02T01:39:05.510Z,25.27
2023-03-02T01:44:04.498Z,28.23
2023-03-02T01:49:06.283Z,29.15
2023-03-02T01:54:23.356Z,27.27
2023-03-02T01:59:29.318Z,27.52
2023-03-02T02:04:32.135Z,24.05
2023-03-02T02:14:34.144Z,28.83
2023-03-02T02:19:46.217Z,26.08
2023-03-02T02:24:51.364Z,30.73
2023-03-02T02:29:53.424Z,54.50
2023-03-02T02:34:56.717Z,33.87
2023-03-02T02:39:56.884Z,31.10
2023-03-02T02:45:04.207Z,30.65
2023-03-02T02:50:03.763Z,30.13
2023-03-02T02:55:04.226Z,30.17
2023-03-02T03:05:37.409Z,29.90
2023-03-02T03:10:41.414Z,31.58
2023-03-02T03:15:42.094Z,33.97
2023-03-02T03:20:55.438Z,35.78
2023-03-02T03:25:54.605Z,34.00
2023-03-02T03:30:55.272Z,41.05
2023-03-02T03:35:54.404Z,37.25
2023-03-02T03:40:54.770Z,36.28
2023-03-02T03:45:55.186Z,39.03
2023-03-02T03:50:54.717Z,37.45
2023-03-02T03:55:54.432Z,37.85
2023-03-02T04:00:55.949Z,41.83
2023-03-02T04:05:54.887Z,38.22
2023-03-02T04:10:54.090Z,38.70
2023-03-02T04:15:54.397Z,39.60
2023-03-02T04:20:53.353Z,40.40
2023-03-02T04:25:52.326Z,41.90
2023-03-02T04:30:55.198Z,35.53
2023-03-02T04:35:55.389Z,40.25
2023-03-02T04:40:54.902Z,48.72
2023-03-02T04:45:55.662Z,40.95
2023-03-02T04:51:00.640Z,36.85
2023-03-02T04:55:59.849Z,53.63
2023-03-02T05:01:02.445Z,41.88
2023-03-02T05:06:02.390Z,41.27
2023-03-02T05:11:01.302Z,42.92
2023-03-02T05:16:02.272Z,40.60
2023-03-02T05:21:01.131Z,39.65
2023-03-02T05:26:00.223Z,42.53
2023-03-02T05:30:59.515Z,40.53
2023-03-02T05:36:01.427Z,41.75
2023-03-02T05:41:01.488Z,44.42
2023-03-02T05:46:01.145Z,38.22
2023-03-02T05:51:01.343Z,42.05
2023-03-02T05:56:00.330Z,38.17
2023-03-02T06:00:59.484Z,43.58
2023-03-02T06:05:58.298Z,44.88
2023-03-02T06:10:59.515Z,39.60
2023-03-02T06:15:58.456Z,48.92
2023-03-02T06:20:57.403Z,49.55
2023-03-02T06:25:56.491Z,46.50
2023-03-02T06:30:56.698Z,44.40
2023-03-02T06:35:55.860Z,42.78
2023-03-02T06:40:55.232Z,43.00
2023-03-02T06:45:54.135Z,51.85
2023-03-02T06:50:54.773Z,49.78
2023-03-02T06:55:54.172Z,46.55
2023-03-02T07:00:53.021Z,50.47
2023-03-02T07:05:57.741Z,42.80
2023-03-02T07:10:56.649Z,41.20
2023-03-02T07:15:56.374Z,46.70
2023-03-02T07:20:56.718Z,41.15
2023-03-02T07:25:55.504Z,44.63
2023-03-02T07:30:55.329Z,44.60
2023-03-02T07:35:54.288Z,50.65
2023-03-02T07:40:54.778Z,48.33
2023-03-02T07:45:53.661Z,43.70
2023-03-02T07:50:52.632Z,44.88
2023-03-02T07:55:51.494Z,47.30
2023-03-02T08:00:52.179Z,47.13
2023-03-02T08:05:50.963Z,43.47
2023-03-02T08:10:49.794Z,44.85
2023-03-02T08:15:48.586Z,47.05
2023-03-02T08:20:48.777Z,46.42
2023-03-02T08:25:48.037Z,43.47
2023-03-02T08:30:46.908Z,48.63
2023-03-02T08:35:45.902Z,44.97
2023-03-02T08:40:46.151Z,46.35
2023-03-02T08:45:44.908Z,46.35
2023-03-02T08:50:43.858Z,47.88
2023-03-02T08:55:42.701Z,43.95
2023-03-02T09:00:42.879Z,47.80
2023-03-02T09:05:41.758Z,47.55
2023-03-02T09:10:41.145Z,47.10
2023-03-02T09:15:40.687Z,47.05
2023-03-02T09:20:40.959Z,52.22
2023-03-02T09:25:39.729Z,52.13
2023-03-02T09:30:46.577Z,49.70
2023-03-02T09:35:47.980Z,48.70
2023-03-02T09:41:05.119Z,53.58
2023-03-02T09:46:16.060Z,50.08
2023-03-02T09:51:29.555Z,56.10
2023-03-02T09:56:28.830Z,56.03
2023-03-02T10:01:37.798Z,50.00
2023-03-02T10:06:40.442Z,47.30
2023-03-02T10:11:51.748Z,48.13
2023-03-02T10:16:54.184Z,47.53
2023-03-02T10:22:01.986Z,47.75
2023-03-02T10:27:12.829Z,44.15
2023-03-02T10:32:21.569Z,46.60
2023-03-02T10:37:25.455Z,44.60
2023-03-02T10:42:30.254Z,41.83
2023-03-02T10:47:30.965Z,47.05
2023-03-02T10:52:31.300Z,39.28
2023-03-02T10:57:35.578Z,41.33
2023-03-02T11:02:40.946Z,40.17
2023-03-02T11:07:41.589Z,42.78
2023-03-02T11:12:48.586Z,45.58
2023-03-02T11:17:50.515Z,39.22
2023-03-02T11:23:01.999Z,38.88
2023-03-02T11:28:10.536Z,39.70
2023-03-02T11:33:16.417Z,37.03
2023-03-02T11:38:22.416Z,36.85
2023-03-02T11:43:21.311Z,39.60
2023-03-02T11:48:26.308Z,37.53
2023-03-02T11:53:31.801Z,37.95
2023-03-02T11:58:33.077Z,35.00
2023-03-02T12:03:41.561Z,36.97
2023-03-02T12:08:44.273Z,31.02
2023-03-02T12:13:43.877Z,36.10
2023-03-02T12:18:45.517Z,34.60
2023-03-02T12:24:00.065Z,32.60
2023-03-02T12:29:03.746Z,32.08
2023-03-02T12:34:08.074Z,34.25
2023-03-02T12:39:31.565Z,34.95
2023-03-02T12:44:44.022Z,34.38
2023-03-02T12:49:49.631Z,32.13
2023-03-02T12:55:01.793Z,32.50
2023-03-02T13:00:02.650Z,36.65
2023-03-02T13:05:03.576Z,29.58
2023-03-02T13:10:09.874Z,30.02
2023-03-02T13:15:16.808Z,31.92
2023-03-02T13:20:16.496Z,31.83
2023-03-02T13:25:26.369Z,29.58
2023-03-02T13:30:28.248Z,30.05
2023-03-02T13:35:29.269Z,29.75
2023-03-02T13:40:51.834Z,29.52
2023-03-02T13:45:56.771Z,29.67
2023-03-02T13:51:05.328Z,30.08
2023-03-02T13:56:06.095Z,36.13
2023-03-02T14:01:06.555Z,38.65
2023-03-02T14:06:07.124Z,33.42
2023-03-02T14:11:08.698Z,34.42
2023-03-02T14:16:08.715Z,35.53
2023-03-02T14:21:11.925Z,32.75
2023-03-02T14:31:29.614Z,33.22
2023-03-02T14:36:31.964Z,36.75
2023-03-02T14:41:34.416Z,35.67
2023-03-02T14:46:38.514Z,37.10
2023-03-02T14:51:40.412Z,34.65
2023-03-02T14:56:45.171Z,33.95
2023-03-02T15:01:45.640Z,35.85
2023-03-02T15:06:45.730Z,35.53
2023-03-02T15:11:44.538Z,33.70
2023-03-02T15:16:43.275Z,39.75
2023-03-02T15:21:45.841Z,40.72
2023-03-02T15:26:44.866Z,47.40
2023-03-02T15:31:43.725Z,38.92
2023-03-02T15:36:44.012Z,48.15
2023-03-02T15:41:43.262Z,41.38
2023-03-02T15:46:42.127Z,41.10
2023-03-02T15:51:43.197Z,49.50
2023-03-02T15:56:49.721Z,47.47
2023-03-02T16:01:48.765Z,40.33
2023-03-02T16:06:51.078Z,43.97
2023-03-02T16:11:54.251Z,41.45
2023-03-02T16:16:53.130Z,41.35
2023-03-02T16:21:52.150Z,38.15
2023-03-02T16:26:53.773Z,41.83
2023-03-02T16:31:54.108Z,36.67
2023-03-02T16:36:53.032Z,37.50
2023-03-02T16:41:51.918Z,37.78
2023-03-02T16:46:50.773Z,39.03
2023-03-02T16:51:57.896Z,43.00
2023-03-02T16:56:56.643Z,40.08
2023-03-02T17:01:55.493Z,59.17
2023-03-02T17:07:01.656Z,56.42
2023-03-02T17:12:04.362Z,48.40
2023-03-02T17:17:09.672Z,55.22
2023-03-02T17:22:08.752Z,42.70
2023-03-02T17:27:23.724Z,48.03
2023-03-02T17:32:24.623Z,49.38
2023-03-02T17:37:25.827Z,49.05
2023-03-02T17:42:26.868Z,45.63
2023-03-02T17:47:25.978Z,44.38
2023-03-02T17:52:24.947Z,53.42
2023-03-02T17:57:25.169Z,60.25
2023-03-02T18:02:23.950Z,50.38
2023-03-02T18:07:22.708Z,56.08
2023-03-02T18:12:21.629Z,50.55
2023-03-02T18:17:21.849Z,54.53
2023-03-02T18:22:22.121Z,54.47
2023-03-02T18:27:21.355Z,46.78
2023-03-02T18:32:21.635Z,43.75
2023-03-02T18:37:20.717Z,41.47
2023-03-02T18:42:19.812Z,40.78
2023-03-02T18:47:19.527Z,40.35
2023-03-02T18:52:20.197Z,41.08
2023-03-02T18:57:19.206Z,39.35
2023-03-02T19:02:18.211Z,41.03
2023-03-02T19:07:23.898Z,42.35
2023-03-02T19:12:22.736Z,41.80
2023-03-02T19:17:21.812Z,45.45
2023-03-02T19:22:22.012Z,41.95
2023-03-02T19:27:21.201Z,39.95
2023-03-02T19:32:20.853Z,40.25
2023-03-02T19:37:21.224Z,38.53
2023-03-02T19:42:22.058Z,43.10
2023-03-02T19:47:21.943Z,41.70
2023-03-02T19:52:22.275Z,37.33
2023-03-02T19:57:21.418Z,36.97
2023-03-02T20:02:20.451Z,37.72
2023-03-02T20:07:19.465Z,40.83
2023-03-02T20:12:20.043Z,40.28
2023-03-02T20:17:19.713Z,40.10
2023-03-02T20:22:18.828Z,41.35
2023-03-02T20:27:21.314Z,40.45
2023-03-02T20:32:20.303Z,37.20
2023-03-02T20:37:19.072Z,38.25
2023-03-02T20:42:19.317Z,42.40
2023-03-02T20:47:20.356Z,40.70
2023-03-02T20:52:20.052Z,40.40
2023-03-02T20:57:23.148Z,36.20
2023-03-02T21:02:23.207Z,39.87
2023-03-02T21:07:22.007Z,36.53
2023-03-02T21:12:22.238Z,33.22
2023-03-02T21:17:23.462Z,37.35
2023-03-02T21:22:22.354Z,36.38
2023-03-02T21:27:22.789Z,36.60
2023-03-02T21:32:21.667Z,36.08
2023-03-02T21:37:20.503Z,33.17
2023-03-02T21:42:19.576Z,34.38
2023-03-02T21:47:19.752Z,35.40
2023-03-02T21:52:18.526Z,34.38
2023-03-02T21:57:17.418Z,37.05
2023-03-02T22:02:16.276Z,34.80
2023-03-02T22:07:16.403Z,34.42
2023-03-02T22:12:15.737Z,31.95
2023-03-02T22:17:18.569Z,36.10
2023-03-02T22:22:23.160Z,33.97
2023-03-02T22:27:26.375Z,33.17
2023-03-02T22:32:27.524Z,34.08
2023-03-02T22:37:29.726Z,37.85
2023-03-02T22:42:31.394Z,31.98
2023-03-02T22:47:30.540Z,38.33
2023-03-02T22:52:39.429Z,33.15
2023-03-02T22:57:38.329Z,35.80
2023-03-02T23:02:41.531Z,32.55
2023-03-02T23:07:41.629Z,32.50
2023-03-02T23:12:40.677Z,35.30
2023-03-02T23:17:41.598Z,32.95
2023-03-02T23:22:42.626Z,33.70
2023-03-02T23:27:41.564Z,38.70
2023-03-02T23:32:40.460Z,33.42
2023-03-02T23:37:39.370Z,37.50
2023-03-02T23:42:39.583Z,35.53
2023-03-02T23:47:38.516Z,37.60
2023-03-02T23:52:37.280Z,31.88
2023-03-02T23:57:38.657Z,38.65
